createdAt,value
2023-05-19T00:01:13.837Z,1.10
2023-05-19T00:03:56.177Z,1.20
2023-05-19T00:06:29.522Z,1.20
2023-05-19T00:09:03.906Z,1.33
2023-05-19T00:14:09.685Z,0.93
2023-05-19T00:16:42.678Z,0.70
2023-05-19T00:19:13.000Z,0.82
2023-05-19T00:21:43.479Z,0.82
2023-05-19T00:24:16.201Z,0.90
2023-05-19T00:26:46.275Z,0.95
2023-05-19T00:29:18.726Z,1.10
2023-05-19T00:31:49.880Z,1.10
2023-05-19T00:34:20.529Z,0.98
2023-05-19T00:36:50.817Z,0.95
2023-05-19T00:39:23.393Z,1.33
2023-05-19T00:41:56.430Z,1.02
2023-05-19T00:44:26.475Z,1.73
2023-05-19T00:46:56.915Z,1.35
2023-05-19T00:49:38.971Z,0.98
2023-05-19T00:52:10.323Z,1.10
2023-05-19T00:54:46.238Z,1.30
2023-05-19T00:57:17.457Z,1.00
2023-05-19T00:59:47.840Z,1.58
2023-05-19T01:02:18.258Z,1.40
2023-05-19T01:04:49.182Z,1.35
2023-05-19T01:07:20.176Z,1.60
2023-05-19T01:09:55.498Z,1.13
2023-05-19T01:12:26.212Z,1.05
2023-05-19T01:14:57.916Z,1.33
2023-05-19T01:17:34.633Z,1.10
2023-05-19T01:20:14.292Z,0.98
2023-05-19T01:23:08.940Z,1.33
2023-05-19T01:26:12.776Z,1.13
2023-05-19T01:29:10.538Z,1.73
2023-05-19T01:31:47.392Z,1.15
2023-05-19T01:34:23.867Z,1.27
2023-05-19T01:36:56.534Z,1.00
2023-05-19T01:39:27.836Z,1.15
2023-05-19T01:41:58.056Z,0.90
2023-05-19T01:44:28.445Z,1.25
2023-05-19T01:47:01.716Z,0.85
2023-05-19T01:49:33.993Z,1.10
2023-05-19T01:52:05.968Z,0.93
2023-05-19T01:54:36.937Z,1.48
2023-05-19T01:57:23.284Z,1.38
2023-05-19T02:00:09.541Z,1.00
2023-05-19T02:03:01.938Z,1.58
2023-05-19T02:05:43.915Z,1.17
2023-05-19T02:08:23.642Z,1.23
2023-05-19T02:11:05.251Z,1.00
2023-05-19T02:13:40.141Z,1.10
2023-05-19T02:16:11.147Z,1.00
2023-05-19T02:18:45.738Z,1.17
2023-05-19T02:21:16.323Z,1.30
2023-05-19T02:23:46.559Z,1.35
2023-05-19T02:26:16.729Z,0.70
2023-05-19T02:28:47.057Z,0.73
2023-05-19T02:31:17.147Z,0.82
2023-05-19T02:33:49.809Z,1.00
2023-05-19T02:36:20.016Z,0.77
2023-05-19T02:38:50.111Z,1.23
2023-05-19T02:41:20.070Z,1.05
2023-05-19T02:43:50.176Z,1.23
2023-05-19T02:46:20.194Z,1.08
2023-05-19T02:48:53.832Z,1.10
2023-05-19T02:51:23.805Z,0.70
2023-05-19T02:53:53.972Z,1.00
2023-05-19T02:56:24.240Z,0.90
2023-05-19T02:58:54.292Z,0.80
2023-05-19T03:01:24.460Z,0.90
2023-05-19T03:03:57.188Z,0.90
2023-05-19T03:06:27.438Z,0.70
2023-05-19T03:08:57.466Z,0.63
2023-05-19T03:11:27.708Z,0.52
2023-05-19T03:13:57.768Z,0.98
2023-05-19T03:16:28.335Z,0.63
2023-05-19T03:19:01.687Z,1.20
2023-05-19T03:21:32.264Z,0.90
2023-05-19T03:24:03.266Z,0.68
2023-05-19T03:26:33.599Z,0.88
2023-05-19T03:29:12.652Z,0.95
2023-05-19T03:31:43.940Z,0.90
2023-05-19T03:34:17.368Z,0.98
2023-05-19T03:36:51.868Z,1.42
2023-05-19T03:39:24.522Z,1.20
2023-05-19T03:41:56.469Z,1.13
2023-05-19T03:44:26.676Z,1.13
2023-05-19T03:46:57.166Z,1.20
2023-05-19T03:50:03.339Z,1.20
2023-05-19T03:52:51.336Z,1.50
2023-05-19T03:55:37.441Z,0.85
2023-05-19T03:58:07.477Z,0.90
2023-05-19T04:00:40.020Z,1.02
2023-05-19T04:03:10.687Z,1.08
2023-05-19T04:05:43.637Z,0.60
2023-05-19T04:08:13.919Z,0.82
2023-05-19T04:10:43.998Z,1.05
2023-05-19T04:13:14.344Z,0.95
2023-05-19T04:15:44.522Z,0.85
2023-05-19T04:18:14.572Z,0.73
2023-05-19T04:20:47.769Z,0.90
2023-05-19T04:23:17.925Z,0.90
2023-05-19T04:25:48.877Z,0.95
2023-05-19T04:28:19.091Z,1.00
2023-05-19T04:30:49.442Z,1.05
2023-05-19T04:33:20.276Z,1.00
2023-05-19T04:35:53.680Z,1.20
2023-05-19T04:38:23.967Z,1.00
2023-05-19T04:40:55.001Z,1.27
2023-05-19T04:43:27.506Z,1.02
2023-05-19T04:45:58.314Z,0.80
2023-05-19T04:48:31.279Z,0.82
2023-05-19T04:51:06.240Z,1.52
2023-05-19T04:53:36.838Z,0.90
2023-05-19T04:56:14.203Z,0.60
2023-05-19T04:58:47.071Z,1.00
2023-05-19T05:01:22.512Z,0.57
2023-05-19T05:03:55.380Z,1.08
2023-05-19T05:06:28.805Z,0.88
2023-05-19T05:09:04.206Z,1.00
2023-05-19T05:11:36.926Z,0.93
2023-05-19T05:14:13.375Z,1.60
2023-05-19T05:16:45.973Z,0.93
2023-05-19T05:19:22.588Z,1.00
2023-05-19T05:21:56.319Z,1.00
2023-05-19T05:24:27.110Z,0.90
2023-05-19T05:27:02.267Z,1.50
2023-05-19T05:29:34.106Z,1.00
2023-05-19T05:32:08.215Z,1.10
2023-05-19T05:34:42.166Z,1.60
2023-05-19T05:37:20.060Z,1.10
2023-05-19T05:39:52.144Z,1.20
2023-05-19T05:42:22.444Z,1.13
2023-05-19T05:44:53.038Z,1.05
2023-05-19T05:47:23.920Z,1.30
2023-05-19T05:49:54.883Z,0.90
2023-05-19T05:52:32.929Z,1.10
2023-05-19T05:55:04.781Z,1.30
2023-05-19T05:57:35.580Z,1.13
2023-05-19T06:00:10.925Z,0.98
2023-05-19T06:02:46.729Z,1.33
2023-05-19T06:05:17.809Z,1.38
2023-05-19T06:07:52.278Z,1.30
2023-05-19T06:10:26.956Z,1.27
2023-05-19T06:12:58.406Z,1.08
2023-05-19T06:15:29.967Z,1.45
2023-05-19T06:18:12.449Z,1.33
2023-05-19T06:20:43.388Z,1.50
2023-05-19T06:23:16.501Z,1.10
2023-05-19T06:25:46.538Z,1.40
2023-05-19T06:28:18.217Z,1.40
2023-05-19T06:30:48.521Z,1.05
2023-05-19T06:33:43.202Z,1.70
2023-05-19T06:36:15.999Z,1.13
2023-05-19T06:38:50.827Z,1.10
2023-05-19T06:41:21.937Z,1.38
2023-05-19T06:43:54.516Z,1.63
2023-05-19T06:46:25.690Z,1.30
2023-05-19T06:48:56.177Z,1.60
2023-05-19T06:51:28.137Z,0.93
2023-05-19T06:54:03.185Z,1.30
2023-05-19T06:56:33.518Z,0.82
2023-05-19T06:59:04.308Z,0.80
2023-05-19T07:01:39.073Z,0.93
2023-05-19T07:04:09.380Z,1.13
2023-05-19T07:06:40.979Z,0.90
2023-05-19T07:09:14.825Z,1.40
2023-05-19T07:11:51.930Z,1.30
2023-05-19T07:14:22.052Z,0.90
2023-05-19T07:16:52.375Z,1.02
2023-05-19T07:19:24.318Z,0.95
2023-05-19T07:21:57.326Z,0.95
2023-05-19T07:24:31.828Z,1.13
2023-05-19T07:27:01.918Z,0.70
2023-05-19T07:29:32.438Z,1.00
2023-05-19T07:32:02.622Z,0.70
2023-05-19T07:34:32.806Z,1.05
2023-05-19T07:37:03.767Z,0.90
2023-05-19T07:39:44.037Z,1.23
2023-05-19T07:42:14.190Z,1.05
2023-05-19T07:44:44.521Z,1.10
2023-05-19T07:47:14.993Z,0.60
2023-05-19T07:49:45.138Z,0.85
2023-05-19T07:52:15.456Z,1.65
2023-05-19T07:54:49.235Z,1.13
2023-05-19T07:57:20.421Z,1.30
2023-05-19T07:59:50.874Z,1.10
2023-05-19T08:02:21.139Z,1.30
2023-05-19T08:04:55.770Z,1.10
2023-05-19T08:07:26.400Z,0.93
2023-05-19T08:09:59.397Z,0.95
2023-05-19T08:12:30.722Z,0.80
2023-05-19T08:15:01.835Z,0.85
2023-05-19T08:17:32.470Z,1.15
2023-05-19T08:20:04.172Z,1.13
2023-05-19T08:22:34.686Z,1.13
2023-05-19T08:25:08.189Z,1.30
2023-05-19T08:27:38.289Z,0.73
2023-05-19T08:30:10.551Z,1.23
2023-05-19T08:32:40.779Z,1.02
2023-05-19T08:35:13.177Z,0.50
2023-05-19T08:37:43.866Z,0.73
2023-05-19T08:40:20.398Z,0.80
2023-05-19T08:43:04.859Z,0.70
2023-05-19T08:45:38.809Z,0.70
2023-05-19T08:50:43.732Z,0.77
2023-05-19T08:56:17.647Z,0.47
2023-05-19T08:58:48.866Z,0.90
2023-05-19T09:01:19.703Z,0.47
2023-05-19T09:03:51.008Z,0.68
2023-05-19T09:06:27.902Z,1.05
2023-05-19T09:09:00.382Z,0.40
2023-05-19T09:11:36.049Z,0.82
2023-05-19T09:14:06.662Z,0.80
2023-05-19T09:16:36.888Z,1.15
2023-05-19T09:19:08.962Z,1.00
2023-05-19T09:21:39.106Z,0.50
2023-05-19T09:24:10.893Z,0.80
2023-05-19T09:26:44.707Z,0.73
2023-05-19T09:29:15.761Z,0.50
2023-05-19T09:31:53.185Z,1.30
2023-05-19T09:34:25.223Z,0.95
2023-05-19T09:36:58.037Z,0.90
2023-05-19T09:39:29.159Z,0.68
2023-05-19T09:42:01.854Z,0.77
2023-05-19T09:44:33.045Z,0.47
2023-05-19T09:47:03.718Z,0.80
2023-05-19T09:49:34.712Z,1.35
2023-05-19T09:52:06.827Z,0.70
2023-05-19T09:54:38.073Z,1.25
2023-05-19T09:57:11.157Z,0.90
2023-05-19T09:59:41.908Z,0.90
2023-05-19T10:02:18.500Z,0.90
2023-05-19T10:04:50.653Z,1.05
2023-05-19T10:07:22.469Z,1.00
2023-05-19T10:09:54.031Z,0.63
2023-05-19T10:12:28.944Z,0.70
2023-05-19T10:14:59.847Z,0.63
2023-05-19T10:17:31.858Z,0.65
2023-05-19T10:20:04.575Z,0.50
2023-05-19T10:22:34.792Z,0.50
2023-05-19T10:25:05.028Z,1.05
2023-05-19T10:27:45.384Z,0.63
2023-05-19T10:30:20.598Z,0.50
2023-05-19T10:32:52.287Z,0.47
2023-05-19T10:35:39.177Z,0.60
2023-05-19T10:38:19.422Z,0.93
2023-05-19T10:40:58.769Z,0.60
2023-05-19T10:43:42.873Z,0.90
2023-05-19T10:46:13.297Z,0.93
2023-05-19T10:48:47.708Z,1.10
2023-05-19T10:51:18.553Z,0.88
2023-05-19T10:53:50.319Z,0.70
2023-05-19T10:56:34.362Z,0.85
2023-05-19T11:01:41.898Z,0.70
2023-05-19T11:04:15.969Z,0.90
2023-05-19T11:06:54.454Z,1.05
2023-05-19T11:09:37.760Z,0.90
2023-05-19T11:12:11.365Z,1.20
2023-05-19T11:14:45.235Z,1.27
2023-05-19T11:17:18.424Z,0.80
2023-05-19T11:19:56.876Z,1.08
2023-05-19T11:22:28.609Z,1.00
2023-05-19T11:24:58.967Z,1.05
2023-05-19T11:27:33.784Z,1.00
2023-05-19T11:30:15.506Z,0.75
2023-05-19T11:32:47.118Z,0.52
2023-05-19T11:35:38.436Z,0.66
2023-05-19T11:38:10.211Z,0.80
2023-05-19T11:40:40.872Z,0.40
2023-05-19T11:43:11.297Z,0.52
2023-05-19T11:45:44.471Z,0.57
2023-05-19T11:48:16.538Z,0.68
2023-05-19T11:50:47.368Z,0.52
2023-05-19T11:53:20.083Z,1.00
2023-05-19T11:55:51.906Z,0.70
2023-05-19T11:58:29.697Z,0.93
2023-05-19T12:01:07.608Z,0.98
2023-05-19T12:03:37.930Z,0.60
2023-05-19T12:06:09.388Z,0.75
2023-05-19T12:08:41.023Z,0.70
2023-05-19T12:11:11.484Z,0.70
2023-05-19T12:13:41.889Z,0.80
2023-05-19T12:16:14.829Z,0.88
2023-05-19T12:18:45.360Z,0.50
2023-05-19T12:21:17.688Z,0.60
2023-05-19T12:23:48.293Z,0.52
2023-05-19T12:26:22.629Z,0.40
2023-05-19T12:28:56.464Z,0.70
2023-05-19T12:31:29.207Z,0.50
2023-05-19T12:33:59.573Z,0.40
2023-05-19T12:36:32.053Z,0.38
2023-05-19T12:39:02.738Z,0.65
2023-05-19T12:41:32.964Z,0.55
2023-05-19T12:44:03.902Z,0.70
2023-05-19T12:46:38.045Z,0.68
2023-05-19T12:49:08.209Z,0.32
2023-05-19T12:51:40.636Z,0.43
2023-05-19T12:54:11.450Z,0.50
2023-05-19T12:56:43.959Z,0.30
2023-05-19T12:59:16.897Z,0.32
2023-05-19T13:02:03.156Z,0.28
2023-05-19T13:04:33.331Z,0.47
2023-05-19T13:07:06.130Z,0.60
2023-05-19T13:09:37.312Z,0.50
2023-05-19T13:12:08.107Z,0.40
2023-05-19T13:14:45.969Z,0.43
2023-05-19T13:17:19.675Z,0.90
2023-05-19T13:19:50.061Z,1.02
2023-05-19T13:22:20.590Z,0.82
2023-05-19T13:24:53.405Z,0.70
2023-05-19T13:27:24.938Z,0.98
2023-05-19T13:29:57.362Z,0.65
2023-05-19T13:32:30.150Z,0.60
2023-05-19T13:35:00.547Z,0.90
2023-05-19T13:37:30.951Z,0.63
2023-05-19T13:40:01.727Z,0.57
2023-05-19T13:42:31.975Z,0.70
2023-05-19T13:45:04.580Z,0.60
2023-05-19T13:47:38.377Z,0.73
2023-05-19T13:50:12.965Z,0.43
2023-05-19T13:52:43.847Z,0.50
2023-05-19T13:55:14.007Z,0.63
2023-05-19T13:57:44.382Z,0.82
2023-05-19T14:00:18.399Z,0.88
2023-05-19T14:02:51.366Z,1.10
2023-05-19T14:05:23.482Z,0.70
2023-05-19T14:07:53.701Z,0.40
2023-05-19T14:10:29.031Z,0.90
2023-05-19T14:15:37.944Z,0.50
2023-05-19T14:18:11.334Z,0.80
2023-05-19T14:20:42.219Z,0.60
2023-05-19T14:23:12.566Z,0.60
2023-05-19T14:25:43.585Z,0.75
2023-05-19T14:28:13.732Z,0.40
2023-05-19T14:30:44.440Z,0.95
2023-05-19T14:33:17.366Z,0.70
2023-05-19T14:35:47.666Z,0.70
2023-05-19T14:38:21.934Z,0.50
2023-05-19T14:40:52.185Z,0.70
2023-05-19T14:43:22.405Z,0.68
2023-05-19T14:45:53.035Z,0.68
2023-05-19T14:48:25.893Z,0.68
2023-05-19T14:51:00.904Z,0.77
2023-05-19T14:53:31.460Z,0.77
2023-05-19T14:56:01.727Z,0.40
2023-05-19T14:58:31.865Z,0.55
2023-05-19T15:01:04.553Z,0.40
2023-05-19T15:03:37.502Z,0.40
2023-05-19T15:06:12.379Z,0.57
2023-05-19T15:08:42.805Z,0.40
2023-05-19T15:11:16.453Z,0.57
2023-05-19T15:13:46.675Z,0.60
2023-05-19T15:16:18.679Z,0.50
2023-05-19T15:18:52.168Z,0.80
2023-05-19T15:21:24.435Z,0.50
2023-05-19T15:23:54.862Z,0.60
2023-05-19T15:26:25.162Z,0.65
2023-05-19T15:28:55.973Z,0.50
2023-05-19T15:31:26.440Z,0.60
2023-05-19T15:33:59.570Z,0.47
2023-05-19T15:36:29.699Z,0.50
2023-05-19T15:38:59.983Z,0.63
2023-05-19T15:41:30.128Z,0.52
2023-05-19T15:44:00.777Z,0.68
2023-05-19T15:46:40.526Z,0.70
2023-05-19T15:49:15.297Z,0.40
2023-05-19T15:51:45.922Z,0.40
2023-05-19T15:54:22.195Z,0.55
2023-05-19T15:56:52.576Z,0.50
2023-05-19T15:59:23.008Z,0.65
2023-05-19T16:01:53.420Z,0.40
2023-05-19T16:04:26.250Z,0.40
2023-05-19T16:06:56.421Z,0.40
2023-05-19T16:09:26.635Z,0.30
2023-05-19T16:11:56.829Z,0.40
2023-05-19T16:14:31.277Z,0.50
2023-05-19T16:17:05.892Z,0.40
2023-05-19T16:19:39.276Z,0.50
2023-05-19T16:22:09.586Z,0.40
2023-05-19T16:24:40.221Z,0.43
2023-05-19T16:27:10.455Z,0.50
2023-05-19T16:29:40.555Z,0.60
2023-05-19T16:32:10.934Z,0.40
2023-05-19T16:34:43.796Z,0.47
2023-05-19T16:37:14.651Z,0.50
2023-05-19T16:39:48.639Z,0.55
2023-05-19T16:44:50.581Z,0.50
2023-05-19T16:47:20.896Z,0.57
2023-05-19T16:49:53.627Z,0.60
2023-05-19T16:52:23.874Z,0.60
2023-05-19T16:54:54.700Z,1.10
2023-05-19T16:57:26.789Z,0.70
2023-05-19T16:59:57.145Z,0.38
2023-05-19T17:02:27.450Z,0.60
2023-05-19T17:05:00.657Z,0.50
2023-05-19T17:07:31.204Z,0.82
2023-05-19T17:10:01.844Z,0.65
2023-05-19T17:12:34.916Z,0.68
2023-05-19T17:15:05.028Z,0.50
2023-05-19T17:17:35.318Z,0.47
2023-05-19T17:20:09.465Z,0.70
2023-05-19T17:25:13.088Z,0.30
2023-05-19T17:27:43.230Z,0.70
2023-05-19T17:30:16.381Z,0.60
2023-05-19T17:32:47.952Z,0.73
2023-05-19T17:35:24.945Z,0.70
2023-05-19T17:38:00.857Z,0.52
2023-05-19T17:40:33.974Z,0.45
2023-05-19T17:43:08.499Z,0.50
2023-05-19T17:45:44.708Z,0.65
2023-05-19T17:48:15.018Z,0.40
2023-05-19T17:50:49.769Z,0.50
2023-05-19T17:53:20.948Z,0.30
2023-05-19T17:55:54.645Z,0.60
2023-05-19T17:58:27.807Z,0.40
2023-05-19T18:00:59.172Z,0.70
2023-05-19T18:03:30.067Z,0.55
2023-05-19T18:06:03.935Z,0.40
2023-05-19T18:08:35.352Z,0.73
2023-05-19T18:11:06.289Z,0.32
2023-05-19T18:13:37.359Z,0.40
2023-05-19T18:16:09.098Z,0.68
2023-05-19T18:18:41.412Z,0.63
2023-05-19T18:21:18.045Z,0.73
2023-05-19T18:23:48.815Z,0.77
2023-05-19T18:26:22.304Z,0.60
2023-05-19T18:28:52.737Z,0.60
2023-05-19T18:31:23.258Z,0.68
2023-05-19T18:33:53.396Z,0.40
2023-05-19T18:36:26.550Z,0.50
2023-05-19T18:38:58.340Z,0.30
2023-05-19T18:41:28.730Z,0.50
2023-05-19T18:43:59.216Z,0.70
2023-05-19T18:46:30.322Z,0.50
2023-05-19T18:49:00.787Z,0.40
2023-05-19T18:51:36.268Z,0.45
2023-05-19T18:54:06.979Z,0.85
2023-05-19T18:56:37.455Z,0.50
2023-05-19T18:59:08.008Z,0.45
2023-05-19T19:01:38.477Z,0.98
2023-05-19T19:04:09.356Z,0.63
2023-05-19T19:06:46.083Z,0.47
2023-05-19T19:09:16.819Z,0.70
2023-05-19T19:11:50.822Z,0.50
2023-05-19T19:14:20.941Z,0.70
2023-05-19T19:16:51.209Z,0.70
2023-05-19T19:19:23.968Z,0.60
2023-05-19T19:21:58.407Z,0.60
2023-05-19T19:24:31.039Z,0.50
2023-05-19T19:27:01.358Z,0.60
2023-05-19T19:29:32.008Z,0.63
2023-05-19T19:32:08.556Z,0.50
2023-05-19T19:34:38.936Z,0.50
2023-05-19T19:37:11.948Z,0.50
2023-05-19T19:39:42.180Z,0.47
2023-05-19T19:42:12.462Z,0.57
2023-05-19T19:44:42.646Z,0.50
2023-05-19T19:47:13.005Z,0.40
2023-05-19T19:49:43.093Z,0.50
2023-05-19T19:52:20.467Z,0.60
2023-05-19T19:54:50.981Z,0.45
2023-05-19T19:57:22.639Z,0.43
2023-05-19T19:59:56.882Z,0.60
2023-05-19T20:04:57.150Z,0.50
2023-05-19T20:07:29.929Z,0.40
2023-05-19T20:10:00.002Z,0.68
2023-05-19T20:12:30.294Z,0.60
2023-05-19T20:15:00.595Z,0.90
2023-05-19T20:17:33.514Z,0.68
2023-05-19T20:20:08.267Z,1.00
2023-05-19T20:22:44.459Z,0.93
2023-05-19T20:25:14.551Z,1.00
2023-05-19T20:27:52.122Z,0.70
2023-05-19T20:30:22.896Z,0.60
2023-05-19T20:32:53.025Z,0.53
2023-05-19T20:35:23.537Z,0.47
2023-05-19T20:37:56.455Z,0.85
2023-05-19T20:40:26.923Z,0.75
2023-05-19T20:42:57.389Z,0.60
2023-05-19T20:45:27.642Z,0.60
2023-05-19T20:47:59.558Z,0.80
2023-05-19T20:50:29.887Z,0.65
2023-05-19T20:53:03.681Z,0.57
2023-05-19T20:55:34.035Z,0.70
2023-05-19T20:58:04.336Z,1.15
2023-05-19T21:00:34.912Z,1.13
2023-05-19T21:03:05.876Z,1.25
2023-05-19T21:05:36.091Z,0.93
2023-05-19T21:08:13.021Z,1.27
2023-05-19T21:10:43.192Z,1.25
2023-05-19T21:13:13.209Z,0.90
2023-05-19T21:15:43.232Z,0.70
2023-05-19T21:18:14.283Z,0.80
2023-05-19T21:20:44.484Z,0.98
2023-05-19T21:23:17.233Z,0.80
2023-05-19T21:25:47.675Z,0.80
2023-05-19T21:28:17.921Z,0.90
2023-05-19T21:30:50.878Z,0.80
2023-05-19T21:33:21.153Z,0.70
2023-05-19T21:35:51.476Z,0.90
2023-05-19T21:38:24.508Z,0.95
2023-05-19T21:40:55.167Z,0.85
2023-05-19T21:43:25.397Z,0.82
2023-05-19T21:45:55.680Z,0.65
2023-05-19T21:48:28.887Z,0.70
2023-05-19T21:50:59.328Z,0.80
2023-05-19T21:53:38.842Z,1.02
2023-05-19T21:56:11.421Z,1.05
2023-05-19T21:58:41.716Z,1.10
2023-05-19T22:01:13.535Z,0.90
2023-05-19T22:03:44.595Z,0.85
2023-05-19T22:06:17.941Z,1.10
2023-05-19T22:08:53.679Z,0.90
2023-05-19T22:11:24.061Z,0.77
2023-05-19T22:13:54.901Z,0.73
2023-05-19T22:16:25.236Z,0.93
2023-05-19T22:18:56.014Z,0.90
2023-05-19T22:21:28.121Z,0.98
2023-05-19T22:24:03.162Z,0.88
2023-05-19T22:26:34.727Z,0.60
2023-05-19T22:29:05.220Z,0.70
2023-05-19T22:31:36.341Z,0.70
2023-05-19T22:34:06.941Z,0.80
2023-05-19T22:36:37.853Z,0.50
2023-05-19T22:39:10.943Z,0.70
2023-05-19T22:41:42.218Z,0.98
2023-05-19T22:44:16.299Z,1.20
2023-05-19T22:49:19.070Z,0.73
2023-05-19T22:51:52.535Z,0.80
2023-05-19T22:54:28.408Z,0.80
2023-05-19T22:56:59.024Z,0.70
2023-05-19T22:59:29.178Z,0.70
2023-05-19T23:01:59.702Z,0.80
2023-05-19T23:04:31.921Z,1.20
2023-05-19T23:07:02.118Z,1.15
2023-05-19T23:09:36.644Z,1.00
2023-05-19T23:12:07.190Z,0.82
2023-05-19T23:14:37.967Z,0.93
2023-05-19T23:17:08.865Z,1.20
2023-05-19T23:19:39.997Z,0.80
2023-05-19T23:22:11.182Z,1.08
2023-05-19T23:24:44.436Z,1.17
2023-05-19T23:27:14.656Z,1.20
2023-05-19T23:29:47.269Z,1.45
2023-05-19T23:32:19.880Z,0.98
2023-05-19T23:34:50.903Z,1.23
2023-05-19T23:37:21.121Z,1.00
2023-05-19T23:39:54.589Z,1.20
2023-05-19T23:42:27.008Z,1.30
2023-05-19T23:44:57.191Z,0.80
2023-05-19T23:47:29.725Z,0.70
2023-05-19T23:49:59.834Z,0.70
2023-05-19T23:52:30.050Z,1.08
2023-05-19T23:55:03.788Z,1.05
2023-05-19T23:57:35.858Z,1.13
